Time;durP1;ratioP1;P1;durP2;ratioP2;P2;SDS_P1;SDS_P2;PMS_P1;PMS_P2;Temp;Humidity;BMP_temperature;BMP_pressure;BME280_temperature;BME280_humidity;BME280_pressure;Samples;Min_cycle;Max_cycle;Signal;HPM_P1;HPM_P2
2022/10/16 00:02:22;;;;;;;6.13;3.30;;;13.20;99.90;;;-144.05;87.30;125687.94;5016931;28;20068;-90
2022/10/16 00:06:08;;;;;;;;;;;;;;;;;;;;;
2022/10/16 00:09:27;;;;;;;8.20;2.92;;;13.20;99.90;;;-144.05;86.79;125687.94;5035342;28;20044;-91
2022/10/16 00:12:13;;;;;;;5.65;3.05;;;13.20;99.90;;;-144.05;86.19;125687.94;5005071;28;20037;-91
2022/10/16 00:15:42;;;;;;;;;;;;;;;;;;;;;
2022/10/16 00:18:37;;;;;;;7.88;3.10;;;13.20;99.90;;;-144.05;86.14;125687.94;5034953;28;20029;-90
2022/10/16 00:25:27;;;;;;;;;;;;;;;;;;;;;
2022/10/16 00:39:16;;;;;;;4.80;2.80;;;13.10;99.90;;;-144.05;85.13;125687.94;5027626;28;20038;-91
2022/10/16 00:41:49;;;;;;;7.15;2.20;;;13.10;99.90;;;-144.05;85.21;125687.94;4954939;28;20070;-90
2022/10/16 00:45:50;;;;;;;;;;;;;;;;;;;;;
2022/10/16 00:57:05;;;;;;;;;;;;;;;;;;;;;
2022/10/16 01:03:57;;;;;;;;;;;;;;;;;;;;;
2022/10/16 01:11:43;;;;;;;;;;;;;;;;;;;;;
2022/10/16 01:15:09;;;;;;;4.05;2.33;;;13.20;99.90;;;-144.05;84.79;125687.94;5030167;28;20042;-90
2022/10/16 01:18:00;;;;;;;5.30;2.40;;;13.20;99.90;;;-144.05;84.89;125687.94;5051906;22;20429;-79
2022/10/16 01:20:42;;;;;;;5.80;2.67;;;13.20;99.90;;;-144.05;84.76;125687.94;5013452;28;20033;-81
2022/10/16 01:23:43;;;;;;;4.25;2.08;;;13.20;99.90;;;-144.05;84.83;125687.94;5013389;28;20044;-78
2022/10/16 01:26:40;;;;;;;4.95;2.33;;;13.20;99.90;;;-144.05;84.56;125687.94;5013311;28;20115;-80
2022/10/16 01:29:31;;;;;;;4.80;2.10;;;13.20;99.90;;;-144.05;84.69;125687.94;5013838;28;20117;-81
2022/10/16 01:32:14;;;;;;;6.85;1.77;;;13.20;99.90;;;-144.05;84.42;125687.94;5005705;23;20050;-78
2022/10/16 01:35:02;;;;;;;8.48;2.03;;;13.20;99.90;;;-144.05;84.26;125687.94;4992899;28;20126;-76
2022/10/16 01:38:17;;;;;;;1.85;1.60;;;13.20;99.90;;;-144.05;84.74;125687.94;4992998;28;20025;-77
2022/10/16 01:40:52;;;;;;;4.32;1.83;;;13.20;99.90;;;-144.05;85.17;125687.94;4992653;28;20116;-78
2022/10/16 01:43:31;;;;;;;3.13;2.25;;;13.20;99.90;;;-144.05;84.88;125687.94;4992966;28;20081;-78
2022/10/16 01:46:00;;;;;;;6.80;1.73;;;13.20;99.90;;;-144.05;84.36;125687.94;4992693;28;20030;-76
2022/10/16 01:48:26;;;;;;;5.05;1.83;;;13.20;99.90;;;-144.05;84.36;125687.94;4992519;28;20101;-76
2022/10/16 01:51:10;;;;;;;4.28;2.00;;;13.10;99.90;;;-144.05;84.98;125687.94;4975026;28;20089;-76
2022/10/16 01:53:38;;;;;;;2.88;1.67;;;13.20;99.90;;;-144.05;85.14;125687.94;4992775;28;20457;-78
2022/10/16 01:56:12;;;;;;;3.85;1.80;;;13.20;99.90;;;-144.05;84.84;125687.94;4992609;28;20073;-76
2022/10/16 01:59:10;;;;;;;4.07;1.92;;;13.10;99.90;;;-144.05;84.76;125687.94;4992658;28;20026;-75
2022/10/16 02:01:45;;;;;;;4.45;2.30;;;13.10;99.90;;;-144.05;85.25;125687.94;4974920;28;20042;-77
2022/10/16 02:04:48;;;;;;;3.35;1.60;;;13.20;99.90;;;-144.05;84.76;125687.94;4992720;28;20606;-77
2022/10/16 02:07:15;;;;;;;3.60;1.60;;;13.20;99.90;;;-144.05;84.98;125687.94;4992364;28;20027;-78
2022/10/16 02:09:41;;;;;;;2.80;1.67;;;13.10;99.90;;;-144.05;84.95;125687.94;4992662;28;20458;-77
2022/10/16 02:12:34;;;;;;;3.00;1.85;;;13.20;99.90;;;-144.05;84.66;125687.94;4974831;28;20125;-78
2022/10/16 02:15:00;;;;;;;5.30;1.85;;;13.10;99.90;;;-144.05;84.84;125687.94;4974832;28;20092;-78
2022/10/16 02:17:26;;;;;;;4.22;1.90;;;13.10;99.90;;;-144.05;84.72;125687.94;4992288;28;20038;-79
2022/10/16 02:19:57;;;;;;;3.90;1.80;;;13.10;99.90;;;-144.05;85.07;125687.94;4974973;28;20038;-78
2022/10/16 02:22:43;;;;;;;2.35;1.25;;;13.10;99.90;;;-144.05;85.28;125687.94;4992197;28;20030;-77
2022/10/16 02:25:31;;;;;;;3.97;1.85;;;13.00;99.90;;;-144.05;85.62;125687.94;4974911;28;20442;-76
2022/10/16 02:28:36;;;;;;;3.13;2.35;;;13.00;99.90;;;-144.05;85.69;125687.94;4992346;28;20061;-78
2022/10/16 02:31:11;;;;;;;3.70;1.90;;;13.00;99.90;;;-144.05;85.49;125687.94;4992101;28;20034;-77
2022/10/16 02:33:42;;;;;;;4.55;1.75;;;13.00;99.90;;;-144.05;85.60;125687.94;4992371;28;20033;-78
2022/10/16 02:36:09;;;;;;;2.72;1.80;;;13.00;99.90;;;-144.05;85.38;125687.94;4992102;28;20028;-77
2022/10/16 02:38:36;;;;;;;3.58;1.77;;;13.00;99.90;;;-144.05;85.09;125687.94;4992149;28;20050;-76
2022/10/16 02:41:04;;;;;;;4.13;1.77;;;12.90;99.90;;;-144.05;85.57;125687.94;4974473;28;20058;-78
2022/10/16 02:43:30;;;;;;;4.07;1.88;;;12.90;99.90;;;-144.05;85.58;125687.94;4993525;28;20061;-76
2022/10/16 02:45:56;;;;;;;8.40;1.80;;;12.90;99.90;;;-144.05;86.02;125687.94;4996149;28;20026;-77
2022/10/16 02:48:22;;;;;;;4.22;1.85;;;12.90;99.90;;;-144.05;85.27;125687.94;4978489;28;20041;-76
2022/10/16 02:50:47;;;;;;;3.67;1.50;;;12.90;99.90;;;-144.05;85.31;125687.94;4978388;28;20026;-76
2022/10/16 02:53:13;;;;;;;3.90;1.45;;;13.10;99.90;;;-144.05;85.17;125687.94;4996273;28;20034;-79
2022/10/16 02:55:39;;;;;;;2.47;1.35;;;13.10;99.90;;;-144.05;84.70;125687.94;4978402;28;20037;-78
2022/10/16 02:58:05;;;;;;;3.08;1.30;;;13.10;99.90;;;-144.05;84.51;125687.94;4978578;28;20030;-79
2022/10/16 03:00:30;;;;;;;2.53;1.40;;;13.10;99.90;;;-144.05;84.34;125687.94;4995992;28;20441;-78
2022/10/16 03:02:56;;;;;;;2.13;1.25;;;13.10;99.90;;;-144.05;84.27;125687.94;4978329;28;20148;-78
2022/10/16 03:05:22;;;;;;;2.80;1.70;;;13.20;99.90;;;-144.05;84.31;125687.94;4978501;28;20367;-77
2022/10/16 03:07:48;;;;;;;1.95;1.38;;;13.20;99.90;;;-144.05;84.19;125687.94;4996396;28;20113;-78
2022/10/16 03:10:14;;;;;;;2.40;1.50;;;13.20;99.90;;;-144.05;83.72;125687.94;4996229;28;20065;-78
2022/10/16 03:12:40;;;;;;;2.72;1.05;;;13.30;99.90;;;-144.05;83.42;125687.94;4996334;28;20037;-77
2022/10/16 03:15:07;;;;;;;2.83;1.23;;;13.30;99.90;;;-144.05;82.89;125687.94;4995983;28;20030;-77
2022/10/16 03:17:33;;;;;;;3.38;1.45;;;13.30;99.90;;;-144.05;83.52;125687.94;4995582;28;20655;-78
2022/10/16 03:19:59;;;;;;;2.70;1.30;;;13.30;99.90;;;-144.05;83.37;125687.94;4995659;28;20038;-76
2022/10/16 03:22:25;;;;;;;5.07;1.15;;;13.30;99.90;;;-144.05;82.80;125687.94;4977699;28;20508;-77
2022/10/16 03:24:50;;;;;;;4.13;1.33;;;13.40;99.90;;;-144.05;82.71;125687.94;4978001;28;20050;-78
2022/10/16 03:27:16;;;;;;;5.60;1.55;;;13.40;99.90;;;-144.05;82.19;125687.94;4995630;28;20034;-76
2022/10/16 03:29:42;;;;;;;3.50;1.30;;;13.40;99.90;;;-144.05;81.89;125687.94;4978086;28;20026;-76
2022/10/16 03:32:08;;;;;;;2.30;1.08;;;13.50;99.90;;;-144.05;81.83;125687.94;4977858;28;20042;-78
2022/10/16 03:34:34;;;;;;;1.52;1.23;;;13.50;99.90;;;-144.05;82.12;125687.94;4995260;28;20097;-78
2022/10/16 03:37:00;;;;;;;1.38;1.00;;;13.50;99.90;;;-144.05;81.18;125687.94;4977893;28;20477;-77
2022/10/16 03:39:25;;;;;;;6.50;1.20;;;13.50;99.90;;;-144.05;81.44;125687.94;4995241;28;20037;-78
2022/10/16 03:41:51;;;;;;;1.95;1.08;;;13.50;99.90;;;-144.05;81.25;125687.94;4995114;28;20053;-77
2022/10/16 03:44:17;;;;;;;1.95;1.02;;;13.50;99.90;;;-144.05;81.24;125687.94;4977857;28;20121;-78
2022/10/16 03:46:43;;;;;;;3.72;1.13;;;13.40;99.90;;;-144.05;81.44;125687.94;4977760;28;20022;-76
2022/10/16 03:49:09;;;;;;;1.63;1.08;;;13.50;99.90;;;-144.05;81.18;125687.94;4977483;28;20077;-77
2022/10/16 03:51:34;;;;;;;2.63;0.90;;;13.50;99.90;;;-144.05;81.24;125687.94;4996380;28;20469;-79
2022/10/16 03:54:00;;;;;;;4.05;1.25;;;13.50;99.90;;;-144.05;81.07;125687.94;4978094;28;20045;-78
2022/10/16 03:56:26;;;;;;;3.63;1.42;;;13.40;99.90;;;-144.05;80.35;125687.94;4994989;28;20034;-77
2022/10/16 03:58:52;;;;;;;1.45;1.20;;;13.50;99.90;;;-144.05;80.84;125687.94;4994890;28;20030;-78
2022/10/16 04:01:18;;;;;;;3.35;1.20;;;13.40;99.90;;;-144.05;81.31;125687.94;4977205;28;20077;-78
2022/10/16 04:03:44;;;;;;;3.45;1.35;;;13.40;99.90;;;-144.05;81.30;125687.94;4994678;28;20023;-78
2022/10/16 04:06:09;;;;;;;2.67;0.90;;;13.40;99.90;;;-144.05;81.26;125687.94;4977342;28;20034;-77
2022/10/16 04:08:36;;;;;;;3.97;1.17;;;13.30;99.90;;;-144.05;81.11;125687.94;4994437;28;20061;-77
2022/10/16 04:11:03;;;;;;;2.42;1.45;;;13.30;99.90;;;-144.05;80.80;125687.94;4994429;28;20072;-78
2022/10/16 04:13:29;;;;;;;2.13;0.90;;;13.30;99.90;;;-144.05;81.04;125687.94;4994676;28;20026;-78
2022/10/16 04:15:55;;;;;;;4.43;1.30;;;13.20;99.90;;;-144.05;80.50;125687.94;4977044;28;20027;-78
2022/10/16 04:18:21;;;;;;;1.10;0.90;;;13.20;99.90;;;-144.05;80.60;125687.94;4994477;28;20049;-77
2022/10/16 04:20:47;;;;;;;1.48;1.08;;;13.20;99.90;;;-144.05;80.64;125687.94;4994216;28;20101;-78
2022/10/16 04:23:12;;;;;;;1.15;0.98;;;13.20;99.90;;;-144.05;80.50;125687.94;4976588;28;20134;-78
2022/10/16 04:25:38;;;;;;;2.28;0.77;;;13.20;99.90;;;-144.05;80.42;125687.94;4994545;28;20030;-78
2022/10/16 04:28:04;;;;;;;2.58;1.02;;;13.20;99.90;;;-144.05;80.35;125687.94;4994480;28;20050;-78
2022/10/16 04:30:30;;;;;;;1.67;1.05;;;13.10;99.90;;;-144.05;80.57;125687.94;4994512;28;20030;-76
2022/10/16 04:32:56;;;;;;;5.38;1.52;;;13.10;99.90;;;-144.05;80.82;125687.94;4994223;28;20034;-77
2022/10/16 04:35:22;;;;;;;1.67;0.82;;;13.10;99.90;;;-144.05;80.89;125687.94;4994257;28;20069;-77
2022/10/16 04:37:48;;;;;;;4.70;1.00;;;13.10;99.90;;;-144.05;80.72;125687.94;4994097;28;20042;-77
2022/10/16 04:40:14;;;;;;;1.38;0.80;;;13.10;99.90;;;-144.05;80.35;125687.94;4994286;28;20035;-77
2022/10/16 04:42:40;;;;;;;0.98;0.80;;;13.10;99.90;;;-144.05;80.46;125687.94;4976498;28;20052;-76
2022/10/16 04:45:08;;;;;;;1.77;0.75;;;13.10;99.90;;;-144.05;79.91;125687.94;4994227;28;20030;-76
2022/10/16 04:47:34;;;;;;;4.45;0.82;;;13.10;99.90;;;-144.05;80.28;125687.94;4994223;28;20034;-76
2022/10/16 04:50:01;;;;;;;8.73;1.25;;;13.10;99.90;;;-144.05;80.04;125687.94;4993898;28;20023;-78
2022/10/16 04:52:27;;;;;;;5.93;1.10;;;13.10;99.90;;;-144.05;80.29;125687.94;4976334;28;20033;-79
2022/10/16 04:54:53;;;;;;;2.25;0.90;;;13.00;99.90;;;-144.05;80.69;125687.94;4993850;28;20027;-77
2022/10/16 04:57:19;;;;;;;4.00;1.00;;;13.10;99.90;;;-144.05;81.14;125687.94;4976514;28;20576;-78
2022/10/16 04:59:45;;;;;;;3.80;1.10;;;13.10;99.90;;;-144.05;80.64;125687.94;4977846;28;20068;-79
2022/10/16 05:02:11;;;;;;;3.25;0.93;;;13.10;99.90;;;-144.05;80.00;125687.94;5016392;28;20031;-76
2022/10/16 05:04:37;;;;;;;3.00;0.88;;;13.10;99.90;;;-144.05;80.09;125687.94;4998168;28;20048;-77
2022/10/16 05:07:03;;;;;;;2.15;1.00;;;13.10;99.90;;;-144.05;79.97;125687.94;5000280;28;20038;-77
2022/10/16 05:09:28;;;;;;;3.50;1.00;;;13.10;99.90;;;-144.05;79.74;125687.94;5000454;28;20038;-76
2022/10/16 05:11:54;;;;;;;0.77;0.77;;;13.20;99.90;;;-144.05;79.99;125687.94;5018099;28;20038;-75
2022/10/16 05:14:20;;;;;;;3.67;0.88;;;13.10;99.90;;;-144.05;80.55;125687.94;4999658;28;20030;-76
2022/10/16 05:16:47;;;;;;;3.33;1.20;;;13.10;99.90;;;-144.05;80.52;125687.94;4993881;28;20458;-76
2022/10/16 05:19:13;;;;;;;3.25;1.05;;;13.10;99.90;;;-144.05;80.57;125687.94;4993463;28;20206;-76
2022/10/16 05:21:39;;;;;;;3.15;0.80;;;13.10;99.90;;;-144.05;80.82;125687.94;4993243;28;20549;-77
2022/10/16 05:24:05;;;;;;;3.38;0.85;;;13.20;99.90;;;-144.05;79.95;125687.94;4993583;28;20049;-77
2022/10/16 05:26:31;;;;;;;1.95;1.05;;;13.20;99.90;;;-144.05;80.24;125687.94;4994182;28;20417;-78
2022/10/16 05:28:56;;;;;;;1.63;0.80;;;13.20;99.90;;;-144.05;80.35;125687.94;4993591;28;20030;-77
2022/10/16 05:31:22;;;;;;;2.53;0.93;;;13.20;99.90;;;-144.05;80.48;125687.94;4976073;28;20069;-78
2022/10/16 05:33:48;;;;;;;1.92;1.20;;;13.20;99.90;;;-144.05;80.42;125687.94;4993851;28;20505;-78
2022/10/16 05:36:14;;;;;;;2.92;1.25;;;13.20;99.90;;;-144.05;80.17;125687.94;4993925;28;20030;-78
2022/10/16 05:38:40;;;;;;;1.10;0.90;;;13.20;99.90;;;-144.05;80.34;125687.94;4993837;28;20492;-77
2022/10/16 05:41:06;;;;;;;0.90;0.80;;;13.20;99.90;;;-144.05;80.61;125687.94;4975918;28;20034;-77
2022/10/16 05:43:33;;;;;;;3.35;1.05;;;13.20;99.90;;;-144.05;80.63;125687.94;4993475;28;20089;-76
2022/10/16 05:46:05;;;;;;;4.22;0.75;;;13.20;99.90;;;-144.05;80.35;125687.94;4976121;28;20154;-77
2022/10/16 05:48:32;;;;;;;3.85;1.45;;;13.20;99.90;;;-144.05;80.53;125687.94;4993190;28;20133;-80
2022/10/16 05:51:06;;;;;;;0.98;0.80;;;13.20;99.90;;;-144.05;80.82;125687.94;4993265;28;20026;-77
2022/10/16 05:53:36;;;;;;;1.83;1.00;;;13.10;99.90;;;-144.05;81.03;125687.94;4993685;28;20122;-77
2022/10/16 05:56:03;;;;;;;3.50;1.30;;;13.10;99.90;;;-144.05;80.57;125687.94;4976324;28;20390;-78
2022/10/16 05:58:35;;;;;;;2.35;1.00;;;13.20;99.90;;;-144.05;80.95;125687.94;4993296;28;20375;-77
2022/10/16 06:01:10;;;;;;;3.83;0.98;;;13.20;99.90;;;-144.05;81.21;125687.94;4975426;28;20109;-76
2022/10/16 06:03:37;;;;;;;2.72;0.75;;;13.10;99.90;;;-144.05;81.28;125687.94;4976852;28;20030;-76
2022/10/16 06:06:22;;;;;;;1.65;0.93;;;13.10;99.90;;;-144.05;81.88;125687.94;4993401;28;20548;-77
2022/10/16 06:08:49;;;;;;;1.23;0.80;;;13.10;99.90;;;-144.05;81.36;125687.94;4993471;28;20118;-76
2022/10/16 06:11:23;;;;;;;4.88;1.15;;;13.00;99.90;;;-144.05;81.47;125687.94;4993361;28;20110;-78
2022/10/16 06:14:01;;;;;;;2.60;1.33;;;13.10;99.90;;;-144.05;81.84;125687.94;4975652;28;20042;-78
2022/10/16 06:16:28;;;;;;;2.25;0.82;;;13.10;99.90;;;-144.05;81.46;125687.94;4975677;28;20018;-78
2022/10/16 06:18:55;;;;;;;2.35;1.10;;;13.10;99.90;;;-144.05;81.72;125687.94;4975546;28;20030;-76
2022/10/16 06:21:26;;;;;;;1.23;0.80;;;13.10;99.90;;;-144.05;81.53;125687.94;4992609;28;20053;-78
2022/10/16 06:23:54;;;;;;;2.72;1.10;;;13.10;99.90;;;-144.05;81.78;125687.94;4992358;28;20061;-78
2022/10/16 06:26:26;;;;;;;3.50;1.20;;;13.10;99.90;;;-144.05;81.66;125687.94;4992399;28;20030;-77
2022/10/16 06:28:58;;;;;;;2.88;0.95;;;13.10;99.90;;;-144.05;81.39;125687.94;4992442;28;20030;-77
2022/10/16 06:31:28;;;;;;;2.33;0.90;;;13.10;99.90;;;-144.05;81.48;125687.94;4977824;28;20500;-78
2022/10/16 06:33:56;;;;;;;1.80;0.90;;;13.20;99.90;;;-144.05;81.15;125687.94;4993399;28;20179;-76
2022/10/16 06:36:24;;;;;;;4.50;0.90;;;13.20;99.90;;;-144.05;81.07;125687.94;4975291;28;20113;-78
2022/10/16 06:38:49;;;;;;;2.17;1.02;;;13.20;99.90;;;-144.05;81.33;125687.94;4992653;28;20039;-77
2022/10/16 06:41:20;;;;;;;2.38;0.93;;;13.30;99.90;;;-144.05;80.96;125687.94;4992286;28;20350;-79
2022/10/16 06:43:47;;;;;;;4.63;1.30;;;13.40;99.90;;;-144.05;81.03;125687.94;4975329;28;20033;-78
2022/10/16 06:46:18;;;;;;;2.42;1.05;;;13.40;99.90;;;-144.05;80.91;125687.94;4974646;28;20034;-78
2022/10/16 06:48:45;;;;;;;1.17;0.95;;;13.50;99.90;;;-144.05;80.09;125687.94;4992625;28;20601;-75
2022/10/16 06:51:21;;;;;;;1.77;1.08;;;13.70;99.90;;;-144.05;79.22;125687.94;4994085;28;20033;-78
2022/10/16 06:53:56;;;;;;;2.55;0.77;;;13.90;99.90;;;-144.05;78.36;125687.94;4975676;28;20030;-77
2022/10/16 06:56:27;;;;;;;4.77;1.03;;;13.90;99.90;;;-144.05;78.70;125687.94;4992354;28;20485;-77
2022/10/16 06:58:54;;;;;;;1.10;0.90;;;13.90;99.90;;;-144.05;78.64;125687.94;4995202;28;20022;-79
2022/10/16 07:01:24;;;;;;;2.30;1.10;;;13.90;99.90;;;-144.05;78.92;125687.94;4977276;28;20045;-78
2022/10/16 07:03:51;;;;;;;1.15;0.80;;;13.80;99.90;;;-144.05;78.80;125687.94;4996551;28;20031;-79
2022/10/16 07:06:23;;;;;;;1.50;0.80;;;13.80;99.90;;;-144.05;79.08;125687.94;4975360;28;20061;-79
2022/10/16 07:08:49;;;;;;;2.15;1.33;;;13.80;99.90;;;-144.05;79.08;125687.94;4992034;28;20053;-76
2022/10/16 07:11:22;;;;;;;2.13;1.55;;;13.80;99.90;;;-144.05;79.74;125687.94;4991687;28;20114;-78
2022/10/16 07:13:51;;;;;;;2.78;1.33;;;13.80;99.90;;;-144.05;79.64;125687.94;4991973;28;20026;-76
2022/10/16 07:16:22;;;;;;;4.18;0.98;;;13.90;99.90;;;-144.05;78.94;125687.94;4974655;28;20058;-77
2022/10/16 07:18:49;;;;;;;3.38;1.20;;;14.00;99.90;;;-144.05;78.37;125687.94;4974400;28;20081;-76
2022/10/16 07:21:21;;;;;;;4.75;1.33;;;14.20;99.90;;;-144.05;76.49;125687.94;4994213;28;20019;-78
2022/10/16 07:24:00;;;;;;;3.80;0.90;;;14.60;99.90;;;-144.05;75.25;125687.94;4991862;28;20032;-79
2022/10/16 07:26:30;;;;;;;4.80;1.30;;;14.90;99.90;;;-144.05;73.62;125687.94;4974591;28;20026;-76
2022/10/16 07:28:57;;;;;;;2.55;1.00;;;15.20;99.90;;;-144.05;73.07;125687.94;4992497;28;20026;-77
2022/10/16 07:33:51;;;;;;;4.78;0.90;;;14.90;99.90;;;-144.05;74.93;125687.94;4997296;28;20054;-85
2022/10/16 07:36:21;;;;;;;2.97;1.30;;;14.70;99.90;;;-144.05;75.72;125687.94;5001711;28;20049;-85
2022/10/16 07:38:47;;;;;;;1.10;0.95;;;14.50;99.90;;;-144.05;76.75;125687.94;5002528;28;20034;-87
2022/10/16 07:41:19;;;;;;;4.88;1.25;;;14.40;99.90;;;-144.05;77.29;125687.94;4981810;28;20474;-82
2022/10/16 07:43:52;;;;;;;2.03;1.25;;;14.30;99.90;;;-144.05;77.36;125687.94;4985560;28;20046;-84
2022/10/16 07:46:22;;;;;;;3.33;1.20;;;14.20;99.90;;;-144.05;78.14;125687.94;4999517;28;20080;-85
2022/10/16 07:48:48;;;;;;;2.25;1.20;;;14.10;99.90;;;-144.05;78.07;125687.94;4997507;28;20030;-85
2022/10/16 07:51:20;;;;;;;3.45;1.20;;;14.10;99.90;;;-144.05;78.35;125687.94;4997123;28;20133;-85
2022/10/16 07:53:47;;;;;;;2.10;1.30;;;14.40;99.90;;;-144.05;75.63;125687.94;4997491;28;20046;-85
2022/10/16 07:56:14;;;;;;;1.83;1.20;;;15.00;99.90;;;-144.05;73.49;125687.94;4980635;28;20056;-81
2022/10/16 07:58:40;;;;;;;1.73;0.80;;;15.40;99.90;;;-144.05;71.91;125687.94;4999325;28;20501;-83
2022/10/16 08:01:13;;;;;;;1.70;0.85;;;15.90;99.90;;;-144.05;71.20;125687.94;4997621;28;20198;-82
2022/10/16 08:03:46;;;;;;;1.40;0.93;;;16.00;99.90;;;-144.05;71.29;125687.94;4998837;28;20105;-85
2022/10/16 08:06:13;;;;;;;2.65;0.98;;;15.80;99.90;;;-144.05;71.49;125687.94;5001519;28;20038;-84
2022/10/16 08:08:39;;;;;;;2.80;1.25;;;16.00;99.90;;;-144.05;69.69;125687.94;5006880;28;20029;-85
2022/10/16 08:11:05;;;;;;;1.20;0.93;;;16.40;99.90;;;-144.05;68.55;125687.94;5007593;28;20034;-81
2022/10/16 08:13:32;;;;;;;2.22;1.20;;;16.60;99.90;;;-144.05;66.97;125687.94;4992687;28;20041;-82
2022/10/16 08:15:58;;;;;;;1.80;0.98;;;16.90;99.90;;;-144.05;67.04;125687.94;5000963;28;20080;-83
2022/10/16 08:18:24;;;;;;;3.45;1.08;;;17.00;99.90;;;-144.05;64.89;125687.94;4999779;28;20031;-86
2022/10/16 08:21:00;;;;;;;1.92;1.10;;;17.30;99.90;;;-144.05;65.59;125687.94;5000925;28;20084;-86
2022/10/16 08:23:27;;;;;;;2.58;0.90;;;17.30;99.90;;;-144.05;65.62;125687.94;4981870;28;20038;-86
2022/10/16 08:26:05;;;;;;;1.90;0.93;;;17.30;99.90;;;-144.05;65.85;125687.94;4996342;28;20340;-87
2022/10/16 08:28:32;;;;;;;1.95;1.05;;;17.40;99.90;;;-144.05;63.89;125687.94;4998415;28;20362;-85
2022/10/16 08:31:10;;;;;;;1.65;1.13;;;17.60;99.90;;;-144.05;63.55;125687.94;4996208;28;20033;-85
2022/10/16 08:33:38;;;;;;;2.78;0.70;;;17.90;99.90;;;-144.05;62.58;125687.94;4995995;28;20521;-83
2022/10/16 08:36:06;;;;;;;1.85;0.90;;;18.10;99.90;;;-144.05;62.62;125687.94;4995562;28;20416;-84
2022/10/16 08:38:33;;;;;;;3.90;0.80;;;18.20;99.90;;;-144.05;62.52;125687.94;4997258;28;20085;-86
2022/10/16 08:41:46;;;;;;;5.47;1.10;;;18.20;99.90;;;-144.05;59.53;125687.94;4948010;28;20038;-85
2022/10/16 08:44:54;;;;;;;4.45;1.27;;;18.50;99.90;;;-144.05;59.20;125687.94;4950194;28;20046;-86
2022/10/16 08:48:01;;;;;;;1.83;1.08;;;18.60;99.90;;;-144.05;59.51;125687.94;5001033;28;20026;-84
2022/10/16 08:50:32;;;;;;;1.67;1.00;;;18.70;99.90;;;-144.05;58.04;125687.94;4997638;28;20026;-84
2022/10/16 08:52:59;;;;;;;2.88;1.10;;;18.60;99.90;;;-144.05;57.66;125687.94;4998530;28;20153;-83
2022/10/16 08:55:53;;;;;;;4.22;1.05;;;18.60;99.90;;;-144.05;56.99;125687.94;4982770;28;20022;-87
2022/10/16 08:58:29;;;;;;;2.38;1.05;;;18.60;99.90;;;-144.05;56.96;125687.94;4999111;28;20038;-84
2022/10/16 09:01:11;;;;;;;3.10;0.93;;;18.60;99.90;;;-144.05;56.25;125687.94;5000671;28;20031;-84
2022/10/16 09:04:33;;;;;;;6.63;1.00;;;18.70;99.90;;;-144.05;54.32;125687.94;4999606;28;20034;-82
2022/10/16 09:07:40;;;;;;;5.65;0.70;;;18.80;99.90;;;-144.05;54.94;125687.94;4999497;28;20401;-84
2022/10/16 09:10:22;;;;;;;;;;;18.90;99.90;;;-144.05;55.36;125687.94;5000022;28;20050;-87
2022/10/16 09:13:44;;;;;;;4.05;0.88;;;19.00;99.90;;;-144.05;53.60;125687.94;4985494;28;19914;-83
2022/10/16 09:16:28;;;;;;;2.35;0.73;;;19.10;99.90;;;-144.05;54.41;125687.94;4998375;28;20072;-84
2022/10/16 09:19:27;;;;;;;3.65;0.75;;;19.20;99.90;;;-144.05;53.71;125687.94;4999612;28;20120;-86
2022/10/16 09:21:55;;;;;;;1.50;0.60;;;19.30;99.90;;;-144.05;52.70;125687.94;5005803;28;20014;-86
2022/10/16 09:24:26;;;;;;;2.17;0.90;;;19.50;99.90;;;-144.05;51.95;125687.94;5014669;28;20030;-82
2022/10/16 09:26:52;;;;;;;2.08;0.70;;;19.80;99.90;;;-144.05;50.25;125687.94;5015082;28;20030;-85
2022/10/16 09:29:23;;;;;;;3.00;0.55;;;19.90;99.90;;;-144.05;49.68;125687.94;5015159;28;20014;-81
2022/10/16 09:31:49;;;;;;;1.88;0.73;;;20.00;99.90;;;-144.05;50.34;125687.94;5007676;28;113062;-83
2022/10/16 09:34:42;;;;;;;3.30;0.77;;;19.90;99.90;;;-144.05;51.10;125687.94;4986473;28;20031;-85
2022/10/16 09:37:18;;;;;;;1.50;0.73;;;19.80;99.90;;;-144.05;49.93;125687.94;5003530;28;20035;-84
2022/10/16 09:39:49;;;;;;;3.97;0.60;;;19.90;99.90;;;-144.05;49.79;125687.94;4999371;28;20034;-82
2022/10/16 09:42:34;;;;;;;2.50;0.68;;;19.90;99.90;;;-144.05;49.51;125687.94;4999771;28;20053;-84
2022/10/16 09:45:01;;;;;;;3.65;0.82;;;20.00;99.90;;;-144.05;50.21;125687.94;4934831;28;20062;-85
2022/10/16 09:47:30;;;;;;;2.95;0.68;;;19.70;99.90;;;-144.05;51.13;125687.94;4998477;28;20061;-87
2022/10/16 09:50:19;;;;;;;4.80;0.70;;;19.40;99.90;;;-144.05;52.34;125687.94;5001933;28;20106;-80
2022/10/16 09:52:45;;;;;;;2.22;0.55;;;18.90;99.90;;;-144.05;52.32;125687.94;5003100;28;20498;-85
2022/10/16 09:55:18;;;;;;;1.05;0.55;;;18.70;99.90;;;-144.05;53.32;125687.94;5003599;28;20026;-87
2022/10/16 09:57:54;;;;;;;3.97;1.00;;;18.90;99.90;;;-144.05;52.50;125687.94;5000958;28;20030;-87
2022/10/16 10:00:24;;;;;;;2.53;0.70;;;18.70;99.90;;;-144.05;53.78;125687.94;4999963;28;20050;-83
2022/10/16 10:02:52;;;;;;;3.80;0.60;;;18.60;99.90;;;-144.05;53.11;125687.94;5000154;28;20030;-87
2022/10/16 10:05:40;;;;;;;3.88;1.05;;;18.60;99.90;;;-144.05;52.58;125687.94;5001180;28;20037;-86
2022/10/16 10:08:18;;;;;;;2.67;0.50;;;18.80;99.90;;;-144.05;51.92;125687.94;4998777;28;20035;-85
2022/10/16 10:10:48;;;;;;;1.38;0.60;;;19.20;99.90;;;-144.05;50.60;125687.94;4983123;28;20089;-87
2022/10/16 10:13:22;;;;;;;3.58;0.80;;;19.80;99.90;;;-144.05;50.68;125687.94;5001766;28;20038;-86
2022/10/16 10:15:52;;;;;;;2.67;0.60;;;20.00;99.90;;;-144.05;50.51;125687.94;5001187;28;20072;-85
2022/10/16 10:18:23;;;;;;;3.55;0.82;;;20.20;99.90;;;-144.05;50.25;125687.94;4983232;28;20065;-87
2022/10/16 10:21:05;;;;;;;3.15;0.95;;;20.10;99.90;;;-144.05;50.25;125687.94;4998861;28;20061;-86
2022/10/16 10:23:31;;;;;;;6.40;1.02;;;20.30;99.90;;;-144.05;48.85;125687.94;4980460;28;20090;-83
2022/10/16 10:26:26;;;;;;;2.95;0.60;;;20.30;99.90;;;-144.05;48.62;125687.94;4996834;28;20474;-84
2022/10/16 10:29:28;;;;;;;2.97;0.50;;;20.30;99.90;;;-144.05;49.50;125687.94;4998951;28;20423;-86
2022/10/16 10:32:09;;;;;;;3.17;0.73;;;20.30;99.90;;;-144.05;47.95;125687.94;5001732;28;20058;-85
2022/10/16 10:35:11;;;;;;;2.78;0.70;;;20.50;99.90;;;-144.05;47.50;125687.94;4995641;28;20050;-87
2022/10/16 10:38:10;;;;;;;2.63;0.60;;;20.80;99.90;;;-144.05;48.81;125687.94;5000006;28;20034;-86
2022/10/16 10:41:10;;;;;;;4.20;0.90;;;21.20;99.90;;;-144.05;47.28;125687.94;5003544;28;20033;-86
2022/10/16 10:43:52;;;;;;;2.40;0.68;;;21.40;99.90;;;-144.05;46.63;125687.94;5000403;28;20122;-82
2022/10/16 10:46:47;;;;;;;2.35;0.63;;;21.10;99.90;;;-144.05;46.88;125687.94;5001156;28;20112;-83
2022/10/16 10:49:57;;;;;;;2.92;0.52;;;21.00;99.90;;;-144.05;47.68;125687.94;4999982;28;20089;-83
2022/10/16 10:52:54;;;;;;;2.53;0.60;;;20.80;99.90;;;-144.05;47.84;125687.94;4997317;28;20494;-82
2022/10/16 10:55:57;;;;;;;;;;;20.60;99.90;;;-144.05;49.13;125687.94;4983122;28;20290;-85
2022/10/16 10:58:57;;;;;;;1.60;0.60;;;20.40;99.90;;;-144.05;48.21;125687.94;4997326;28;19920;-86
2022/10/16 11:01:46;;;;;;;1.20;0.50;;;20.70;99.90;;;-144.05;47.14;125687.94;4996846;28;20036;-83
2022/10/16 11:04:42;;;;;;;2.22;0.80;;;20.80;99.90;;;-144.05;48.34;125687.94;4999115;28;20031;-85
2022/10/16 11:07:34;;;;;;;2.97;0.73;;;20.70;99.90;;;-144.05;47.38;125687.94;5002437;28;20030;-85
2022/10/16 11:10:38;;;;;;;5.28;0.60;;;20.80;99.90;;;-144.05;47.18;125687.94;5001566;28;20026;-80
2022/10/16 11:14:05;;;;;;;2.22;0.73;;;20.90;99.90;;;-144.05;47.14;125687.94;4997876;28;20053;-86
2022/10/16 11:16:53;;;;;;;3.03;0.60;;;20.90;99.90;;;-144.05;47.57;125687.94;5006185;28;20026;-84
2022/10/16 11:19:48;;;;;;;1.25;0.30;;;20.50;99.90;;;-144.05;47.53;125687.94;4986336;28;20553;-86
2022/10/16 11:22:39;;;;;;;2.10;0.70;;;20.60;99.90;;;-144.05;47.05;125687.94;5001449;28;20031;-86